TAF预报中的积冰

今天遇到个TAF中的积冰预报不会读,找了好久才找到最权威的出处。报文如下:

TAF UUDD 012255Z 020006 19006MPS 3000 BR OVC005 TEMPO 0200/0207 0700 FZDZ FZFG OVC003 640000 BECMG 0207/0209 6000 NSW BKN007

其中积冰项的高度和深度怎么都是0?

《中华人民共和国民用航空行业标准民用航空气象第6部分:电码》的航路预报ROFOR中有解释。4是积冰类型,000代表积冰底部<50米,最后一个0代表厚度直到云顶。

WMO的《WMO_306_vol I.1_en》中的航路预报也有相同解释。

至于为什么UUDD把航路预报的积冰内容报在TAF里,我就不知道了。也许是想强调一下FZ的严重程度吧。

发表评论